Time;durP1;ratioP1;P1;durP2;ratioP2;P2;SDS_P1;SDS_P2;PMS_P1;PMS_P2;Temp;Humidity;BMP_temperature;BMP_pressure;BME280_temperature;BME280_humidity;BME280_pressure;Samples;Min_cycle;Max_cycle;Signal;HPM_P1;HPM_P2
2024/03/06 00:02:22;;;;;;;11.60;5.57;;;6.70;98.00;;;;;;4995460;28;20466;-90
2024/03/06 00:04:49;;;;;;;16.03;6.20;;;6.70;98.00;;;;;;4995160;28;20523;-90
2024/03/06 00:07:19;;;;;;;8.60;5.23;;;6.80;98.00;;;;;;4994953;28;20559;-90
2024/03/06 00:09:46;;;;;;;9.83;5.63;;;6.80;98.00;;;;;;4994789;28;21006;-90
2024/03/06 00:12:14;;;;;;;11.43;6.13;;;6.80;98.00;;;;;;4995098;28;20526;-91
2024/03/06 00:14:41;;;;;;;12.10;6.20;;;6.80;98.00;;;;;;4995088;28;20499;-91
2024/03/06 00:17:09;;;;;;;13.20;6.00;;;6.70;98.00;;;;;;4995261;28;20484;-90
2024/03/06 00:19:38;;;;;;;14.37;6.10;;;6.60;98.00;;;;;;4994800;28;21063;-91
2024/03/06 00:22:06;;;;;;;16.07;6.77;;;6.60;98.00;;;;;;4994930;28;20459;-90
2024/03/06 00:24:43;;;;;;;13.27;6.90;;;6.70;98.00;;;;;;4994787;28;20543;-90
2024/03/06 00:27:13;;;;;;;14.10;6.27;;;6.70;98.00;;;;;;4992371;28;20483;-91
2024/03/06 00:29:40;;;;;;;13.67;6.40;;;6.70;98.00;;;;;;4994628;28;20510;-91
2024/03/06 00:32:09;;;;;;;14.20;6.57;;;6.70;98.00;;;;;;4994831;28;20460;-91
2024/03/06 00:34:39;;;;;;;11.60;6.33;;;6.70;98.00;;;;;;4994997;28;20462;-91
2024/03/06 00:37:08;;;;;;;14.20;6.93;;;6.80;98.00;;;;;;4994943;28;20999;-91
2024/03/06 00:39:36;;;;;;;12.53;6.63;;;6.80;98.00;;;;;;4995593;28;20534;-90
2024/03/06 00:42:08;;;;;;;13.00;6.10;;;6.80;98.00;;;;;;4995436;28;20964;-90
2024/03/06 00:44:38;;;;;;;15.97;6.93;;;6.80;98.00;;;;;;4995903;28;20714;-91
2024/03/06 00:47:07;;;;;;;14.97;7.10;;;6.80;98.00;;;;;;4995660;28;20467;-90
2024/03/06 00:49:41;;;;;;;13.50;6.50;;;6.80;98.00;;;;;;4993862;28;20485;-90
2024/03/06 00:52:09;;;;;;;12.23;6.20;;;6.80;98.00;;;;;;4994450;28;20587;-91
2024/03/06 00:54:36;;;;;;;13.40;7.20;;;6.90;98.00;;;;;;4994047;28;20464;-90
2024/03/06 00:57:09;;;;;;;12.67;6.43;;;6.80;98.00;;;;;;4993997;28;20488;-91
2024/03/06 00:59:42;;;;;;;12.20;6.60;;;6.70;98.00;;;;;;4993864;28;20503;-90
2024/03/06 01:02:09;;;;;;;14.33;6.63;;;6.70;98.00;;;;;;4994216;28;20491;-90
2024/03/06 01:04:47;;;;;;;17.53;7.40;;;6.70;98.00;;;;;;4994090;28;20459;-90
2024/03/06 01:07:19;;;;;;;15.57;7.20;;;6.70;98.00;;;;;;4993810;28;20459;-90
2024/03/06 01:09:48;;;;;;;16.93;7.50;;;6.70;98.00;;;;;;4993749;28;20534;-91
2024/03/06 01:12:15;;;;;;;16.50;7.00;;;6.70;98.00;;;;;;4993917;28;20547;-90
2024/03/06 01:14:43;;;;;;;13.90;6.47;;;6.60;98.00;;;;;;4993577;28;20544;-91
2024/03/06 01:17:11;;;;;;;14.83;6.97;;;6.60;98.00;;;;;;4993524;28;20480;-90
2024/03/06 01:19:39;;;;;;;16.47;7.50;;;6.70;98.00;;;;;;4994031;28;20841;-90
2024/03/06 01:22:08;;;;;;;18.00;7.23;;;6.70;98.00;;;;;;4994020;28;20539;-91
2024/03/06 01:24:36;;;;;;;15.83;7.30;;;6.80;98.00;;;;;;4993765;28;21014;-90
2024/03/06 01:27:05;;;;;;;13.47;7.00;;;6.80;98.00;;;;;;4994029;28;20487;-91
2024/03/06 01:29:35;;;;;;;20.00;7.50;;;6.80;98.00;;;;;;4993400;28;20511;-91
2024/03/06 01:32:04;;;;;;;13.30;6.40;;;6.80;98.00;;;;;;4993647;28;21030;-91
2024/03/06 01:34:32;;;;;;;13.73;7.10;;;6.80;98.00;;;;;;4993750;28;20488;-90
2024/03/06 01:37:06;;;;;;;15.27;7.20;;;6.80;98.00;;;;;;4993531;28;20477;-90
2024/03/06 01:39:35;;;;;;;16.97;6.73;;;6.80;98.00;;;;;;4993697;28;20563;-90
2024/03/06 01:42:03;;;;;;;14.73;6.83;;;6.80;98.00;;;;;;4993646;28;20461;-91
2024/03/06 01:44:32;;;;;;;17.93;7.40;;;6.80;98.00;;;;;;4993759;28;20908;-90
2024/03/06 01:46:59;;;;;;;15.17;6.77;;;6.90;98.00;;;;;;4993479;28;20463;-91
2024/03/06 01:49:29;;;;;;;16.93;7.00;;;7.00;98.00;;;;;;4993149;28;20493;-91
2024/03/06 01:52:02;;;;;;;15.03;6.83;;;7.00;98.00;;;;;;4993574;28;20535;-90
2024/03/06 01:54:33;;;;;;;15.53;7.13;;;7.00;98.00;;;;;;4993663;28;20451;-90
2024/03/06 01:57:02;;;;;;;13.60;6.70;;;6.80;98.00;;;;;;4993527;28;20484;-90
2024/03/06 01:59:37;;;;;;;14.77;7.00;;;6.80;98.00;;;;;;4993651;28;20492;-91
2024/03/06 02:02:08;;;;;;;15.00;7.03;;;6.80;98.00;;;;;;4999658;28;20451;-91
2024/03/06 02:04:35;;;;;;;12.80;6.80;;;6.70;98.00;;;;;;4999674;28;20458;-91
2024/03/06 02:07:11;;;;;;;13.63;6.83;;;6.70;98.00;;;;;;4999625;28;20565;-91
2024/03/06 02:09:41;;;;;;;12.90;7.03;;;6.70;98.00;;;;;;4999461;28;20490;-91
2024/03/06 02:12:15;;;;;;;15.73;6.93;;;6.70;98.00;;;;;;4999904;28;20831;-90
2024/03/06 02:14:42;;;;;;;13.40;6.90;;;6.80;98.00;;;;;;4999833;28;20454;-90
2024/03/06 02:17:11;;;;;;;16.13;7.00;;;6.80;98.00;;;;;;4999508;28;20489;-91
2024/03/06 02:19:41;;;;;;;16.10;6.63;;;6.90;98.00;;;;;;5000067;28;20480;-91
2024/03/06 02:22:10;;;;;;;11.90;6.00;;;7.00;98.00;;;;;;4999703;28;20451;-90
2024/03/06 02:24:37;;;;;;;15.90;7.17;;;6.90;98.00;;;;;;4999536;28;20462;-90
2024/03/06 02:27:16;;;;;;;15.93;7.17;;;6.80;98.00;;;;;;4999393;28;20828;-90
2024/03/06 02:29:45;;;;;;;10.93;6.00;;;6.80;98.00;;;;;;4999582;28;20995;-91
2024/03/06 02:32:18;;;;;;;13.00;6.83;;;6.80;98.00;;;;;;4999548;28;20889;-91
2024/03/06 02:34:45;;;;;;;13.70;7.13;;;6.80;98.00;;;;;;4999575;28;20457;-90
2024/03/06 02:37:16;;;;;;;17.93;6.73;;;6.90;98.00;;;;;;4999262;28;20611;-91
2024/03/06 02:39:43;;;;;;;16.03;6.83;;;6.90;98.00;;;;;;4999227;28;21007;-90
2024/03/06 02:42:12;;;;;;;17.33;7.30;;;6.90;98.00;;;;;;4999738;28;20492;-90
2024/03/06 02:44:42;;;;;;;17.57;6.70;;;6.80;98.00;;;;;;4999433;28;20459;-90
2024/03/06 02:47:14;;;;;;;13.53;7.30;;;6.80;98.00;;;;;;4999597;28;20453;-90
2024/03/06 02:49:47;;;;;;;15.30;6.70;;;6.90;98.00;;;;;;4999279;28;20558;-90
2024/03/06 02:52:18;;;;;;;15.90;7.50;;;6.80;98.00;;;;;;4999195;28;20464;-91
2024/03/06 02:54:45;;;;;;;14.80;7.17;;;6.80;98.00;;;;;;4999406;28;20463;-90
2024/03/06 02:57:15;;;;;;;14.43;7.13;;;6.80;98.00;;;;;;4999267;28;20480;-91
2024/03/06 02:59:42;;;;;;;12.93;6.20;;;6.80;98.00;;;;;;4999458;28;20491;-91
2024/03/06 03:02:09;;;;;;;16.97;7.87;;;6.70;98.00;;;;;;4999585;28;20457;-90
2024/03/06 03:04:37;;;;;;;15.00;7.23;;;6.60;98.00;;;;;;4999455;28;20474;-90
2024/03/06 03:07:05;;;;;;;14.40;6.70;;;6.70;98.00;;;;;;4998834;28;20487;-91
2024/03/06 03:09:36;;;;;;;15.10;6.93;;;6.80;98.00;;;;;;4999113;28;20480;-90
2024/03/06 03:12:06;;;;;;;14.17;7.40;;;6.80;98.00;;;;;;4996907;28;20460;-91
2024/03/06 03:14:39;;;;;;;13.43;7.03;;;6.80;98.00;;;;;;4996381;28;20961;-90
2024/03/06 03:17:09;;;;;;;17.30;6.97;;;6.70;98.00;;;;;;4995924;28;20492;-90
2024/03/06 03:19:39;;;;;;;14.20;6.63;;;6.70;98.00;;;;;;4996393;28;20538;-90
2024/03/06 03:22:09;;;;;;;13.67;7.20;;;6.60;98.00;;;;;;4995835;28;20453;-90
2024/03/06 03:24:43;;;;;;;15.50;6.80;;;6.60;98.00;;;;;;4996461;28;20456;-90
2024/03/06 03:27:12;;;;;;;15.03;7.07;;;6.60;98.00;;;;;;4995697;28;20518;-91
2024/03/06 03:29:43;;;;;;;14.07;6.80;;;6.70;98.00;;;;;;4996018;28;20491;-90
2024/03/06 03:32:16;;;;;;;15.57;7.07;;;6.70;98.00;;;;;;4996301;28;20970;-91
2024/03/06 03:34:45;;;;;;;12.30;5.97;;;6.70;98.00;;;;;;4995623;28;20460;-90
2024/03/06 03:37:17;;;;;;;14.40;7.00;;;6.90;98.00;;;;;;4995639;28;20463;-91
2024/03/06 03:39:47;;;;;;;12.60;6.20;;;6.90;98.00;;;;;;4995247;28;21026;-91
2024/03/06 03:42:19;;;;;;;12.93;6.40;;;6.80;98.00;;;;;;4995400;28;20467;-90
2024/03/06 03:44:49;;;;;;;12.47;6.37;;;6.80;98.00;;;;;;4995279;28;20982;-90
2024/03/06 03:47:26;;;;;;;11.00;6.03;;;6.80;98.00;;;;;;4995862;28;20998;-90
2024/03/06 03:49:53;;;;;;;14.30;6.53;;;6.80;98.00;;;;;;4995612;28;20483;-90
2024/03/06 03:52:25;;;;;;;12.93;6.60;;;6.80;98.00;;;;;;4995280;28;20984;-90
2024/03/06 03:54:55;;;;;;;15.77;6.63;;;6.90;98.00;;;;;;4995044;28;20471;-91
2024/03/06 03:57:27;;;;;;;11.90;5.97;;;6.90;98.00;;;;;;4995104;28;20498;-90
2024/03/06 03:59:54;;;;;;;12.43;5.50;;;6.90;98.00;;;;;;4995052;28;20495;-90
2024/03/06 04:02:23;;;;;;;9.80;5.40;;;6.90;98.00;;;;;;4995406;28;20518;-90
2024/03/06 04:04:53;;;;;;;12.90;5.90;;;6.80;98.00;;;;;;4995102;28;20460;-90
2024/03/06 04:07:26;;;;;;;11.70;6.30;;;6.80;98.00;;;;;;4977228;28;20575;-90
2024/03/06 04:09:55;;;;;;;11.13;5.73;;;6.90;98.00;;;;;;4995148;28;20828;-91
2024/03/06 04:12:24;;;;;;;11.30;6.20;;;6.80;98.00;;;;;;4994998;28;20453;-91
2024/03/06 04:14:54;;;;;;;10.90;5.47;;;6.90;98.00;;;;;;4994867;28;20464;-90
2024/03/06 04:17:21;;;;;;;12.00;5.93;;;6.90;98.00;;;;;;4994901;28;20468;-90
2024/03/06 04:19:50;;;;;;;17.63;7.23;;;6.90;98.00;;;;;;4995245;28;20535;-90
2024/03/06 04:22:23;;;;;;;13.70;7.00;;;6.90;98.00;;;;;;4994810;28;20543;-91
2024/03/06 04:24:50;;;;;;;14.70;6.63;;;6.80;98.00;;;;;;4994426;28;20471;-91
2024/03/06 04:27:21;;;;;;;15.40;7.00;;;6.80;98.00;;;;;;4994413;28;20498;-90
2024/03/06 04:29:49;;;;;;;14.90;6.30;;;6.90;98.00;;;;;;4994602;28;20500;-91
2024/03/06 04:32:19;;;;;;;14.67;6.60;;;6.90;98.00;;;;;;4994971;28;20825;-91
2024/03/06 04:34:49;;;;;;;13.63;6.40;;;6.90;98.00;;;;;;4994246;28;20550;-91
2024/03/06 04:37:17;;;;;;;16.40;6.67;;;6.80;98.00;;;;;;4994216;28;20854;-90
2024/03/06 04:39:44;;;;;;;16.17;7.43;;;6.80;98.00;;;;;;4994166;28;20572;-90
2024/03/06 04:42:12;;;;;;;15.60;6.33;;;7.00;98.00;;;;;;4994359;28;20460;-90
2024/03/06 04:44:43;;;;;;;13.67;7.03;;;6.90;98.00;;;;;;4994167;28;20555;-91
2024/03/06 04:47:10;;;;;;;13.50;7.00;;;6.90;98.00;;;;;;4994411;28;20460;-90
2024/03/06 04:49:37;;;;;;;15.80;6.43;;;6.90;98.00;;;;;;4994049;28;20877;-90
2024/03/06 04:52:04;;;;;;;13.53;6.67;;;7.10;98.00;;;;;;4994127;28;20461;-91
2024/03/06 04:54:32;;;;;;;12.30;6.10;;;7.10;98.00;;;;;;4994158;28;20987;-90
2024/03/06 04:57:02;;;;;;;12.80;6.37;;;7.20;98.00;;;;;;4994168;28;20550;-91
2024/03/06 04:59:29;;;;;;;13.90;6.43;;;7.20;98.00;;;;;;4993658;28;20493;-90
2024/03/06 05:02:03;;;;;;;15.07;6.40;;;7.30;98.00;;;;;;4994286;28;20542;-90
2024/03/06 05:04:30;;;;;;;14.70;7.30;;;7.30;98.00;;;;;;4993986;28;20466;-90
2024/03/06 05:06:57;;;;;;;14.87;7.33;;;7.20;98.00;;;;;;4993895;28;20468;-90
2024/03/06 05:09:24;;;;;;;15.17;6.77;;;7.20;98.00;;;;;;4993821;28;20555;-90
2024/03/06 05:11:52;;;;;;;16.50;7.13;;;7.20;98.00;;;;;;4994170;28;20455;-90
2024/03/06 05:14:22;;;;;;;15.53;7.07;;;7.30;98.00;;;;;;4993481;28;20478;-91
2024/03/06 05:16:52;;;;;;;13.20;6.63;;;7.10;98.00;;;;;;4993886;28;20491;-90
2024/03/06 05:19:21;;;;;;;13.70;7.00;;;7.10;98.00;;;;;;4993456;28;20492;-90
2024/03/06 05:21:51;;;;;;;15.23;6.97;;;7.20;98.00;;;;;;4993736;28;20468;-90
2024/03/06 05:24:19;;;;;;;15.40;7.40;;;7.20;98.00;;;;;;4993538;28;20459;-90
2024/03/06 05:26:47;;;;;;;20.70;7.00;;;7.10;98.00;;;;;;4993822;28;20470;-90
2024/03/06 05:29:17;;;;;;;15.07;7.10;;;7.10;98.00;;;;;;4993563;28;20898;-90
2024/03/06 05:31:44;;;;;;;15.20;7.23;;;7.00;98.00;;;;;;4993436;28;20507;-90
2024/03/06 05:34:12;;;;;;;11.90;7.00;;;7.00;98.00;;;;;;4993167;28;20826;-90
2024/03/06 05:36:41;;;;;;;14.63;7.30;;;7.10;98.00;;;;;;4993378;28;20459;-90
2024/03/06 05:39:12;;;;;;;14.77;7.17;;;7.10;98.00;;;;;;4993077;28;20484;-90
2024/03/06 05:41:40;;;;;;;15.60;7.60;;;7.10;98.00;;;;;;4993360;28;20547;-90
2024/03/06 05:44:07;;;;;;;15.40;7.27;;;7.00;98.00;;;;;;4993137;28;20455;-90
2024/03/06 05:46:34;;;;;;;17.00;7.60;;;7.00;98.00;;;;;;4993420;28;20495;-90
2024/03/06 05:49:02;;;;;;;16.80;7.07;;;6.90;98.00;;;;;;4993464;28;21030;-91
2024/03/06 05:51:31;;;;;;;18.37;7.53;;;6.90;98.00;;;;;;4993153;28;20661;-90
2024/03/06 05:54:00;;;;;;;18.10;7.50;;;6.90;98.00;;;;;;4993318;28;20462;-90
2024/03/06 05:56:27;;;;;;;17.50;8.43;;;7.00;98.00;;;;;;4993121;28;20455;-90
2024/03/06 05:58:54;;;;;;;19.83;7.30;;;7.20;98.00;;;;;;4993005;28;20514;-90
2024/03/06 06:01:22;;;;;;;14.37;7.20;;;7.20;98.00;;;;;;4992760;28;20518;-90
2024/03/06 06:03:49;;;;;;;16.20;7.60;;;7.20;98.00;;;;;;4992906;28;20852;-90
2024/03/06 06:06:17;;;;;;;16.10;7.97;;;7.20;98.00;;;;;;4993099;28;20495;-90
2024/03/06 06:08:44;;;;;;;14.30;7.47;;;7.10;98.00;;;;;;4992927;28;20526;-90
2024/03/06 06:11:13;;;;;;;20.20;8.43;;;7.10;98.00;;;;;;4992695;28;20470;-92
2024/03/06 06:13:40;;;;;;;17.37;8.10;;;7.10;98.00;;;;;;4993125;28;20983;-90
2024/03/06 06:19:08;;;;;;;19.63;8.33;;;7.20;98.00;;;;;;4996291;28;20555;-91
2024/03/06 06:21:42;;;;;;;17.67;8.40;;;7.10;98.00;;;;;;4996265;28;20546;-91
2024/03/06 06:27:03;;;;;;;16.30;8.00;;;7.00;98.00;;;;;;4994822;28;20458;-90
2024/03/06 06:29:33;;;;;;;17.50;7.83;;;7.00;98.00;;;;;;4995416;28;20476;-91
2024/03/06 06:32:08;;;;;;;18.23;8.20;;;7.00;98.00;;;;;;4995365;28;20470;-92
2024/03/06 06:34:37;;;;;;;18.20;8.10;;;7.10;98.00;;;;;;4996082;28;20471;-90
2024/03/06 06:37:07;;;;;;;16.00;8.03;;;7.10;98.00;;;;;;4995185;28;20971;-90
2024/03/06 06:39:35;;;;;;;17.53;8.13;;;7.10;98.00;;;;;;4995501;28;20491;-90
2024/03/06 06:42:08;;;;;;;18.20;7.90;;;7.10;98.00;;;;;;4995663;28;21033;-92
2024/03/06 06:44:36;;;;;;;20.23;8.80;;;7.10;98.00;;;;;;4995922;28;20468;-90
2024/03/06 06:47:07;;;;;;;19.97;8.17;;;7.00;98.00;;;;;;4995859;28;20460;-90
2024/03/06 06:49:34;;;;;;;19.43;8.57;;;7.10;98.00;;;;;;4999076;28;21019;-90
2024/03/06 06:52:04;;;;;;;16.00;7.73;;;7.20;98.00;;;;;;4998805;28;20466;-89
2024/03/06 06:54:31;;;;;;;17.67;8.30;;;7.10;98.00;;;;;;4999006;28;20463;-90
2024/03/06 06:56:58;;;;;;;16.63;7.77;;;7.20;98.00;;;;;;4998588;28;20553;-90
2024/03/06 06:59:27;;;;;;;14.10;7.20;;;7.30;98.00;;;;;;4998625;28;20488;-91
2024/03/06 07:01:55;;;;;;;16.70;7.70;;;7.30;98.00;;;;;;4997670;28;20467;-90
2024/03/06 07:04:34;;;;;;;19.70;7.70;;;7.30;98.00;;;;;;4998175;28;20521;-90
2024/03/06 07:07:04;;;;;;;18.60;8.10;;;7.20;98.00;;;;;;4997598;28;20467;-90
2024/03/06 07:09:33;;;;;;;18.43;8.43;;;7.20;98.00;;;;;;4997925;28;20858;-90
2024/03/06 07:12:02;;;;;;;14.70;7.80;;;7.30;98.00;;;;;;4998605;28;20467;-89
2024/03/06 07:14:31;;;;;;;17.80;8.50;;;7.30;98.00;;;;;;4998435;28;20466;-91
2024/03/06 07:16:58;;;;;;;16.03;7.60;;;7.40;98.00;;;;;;4997842;28;20452;-90
2024/03/06 07:19:25;;;;;;;17.37;7.83;;;7.30;98.00;;;;;;4996879;28;20518;-89
2024/03/06 07:21:53;;;;;;;17.10;7.73;;;7.40;98.00;;;;;;4997870;28;20497;-89
2024/03/06 07:24:24;;;;;;;16.13;7.30;;;7.60;98.00;;;;;;4997142;28;20458;-89
2024/03/06 07:26:51;;;;;;;16.23;7.40;;;7.50;98.00;;;;;;4996944;28;20454;-89
2024/03/06 07:29:19;;;;;;;14.33;7.40;;;7.50;98.00;;;;;;4995873;28;20486;-89
2024/03/06 07:31:47;;;;;;;18.53;7.60;;;7.50;98.00;;;;;;4996750;28;21030;-89
2024/03/06 07:34:15;;;;;;;18.83;8.23;;;7.50;98.00;;;;;;4994701;28;20455;-89
2024/03/06 07:36:42;;;;;;;17.27;8.00;;;7.40;98.00;;;;;;4993934;28;20559;-89
2024/03/06 07:39:14;;;;;;;15.67;8.00;;;7.30;98.00;;;;;;4993866;28;20494;-90
2024/03/06 07:41:41;;;;;;;17.33;8.63;;;7.30;98.00;;;;;;4996107;28;20507;-89
2024/03/06 07:44:08;;;;;;;17.37;8.20;;;7.40;98.00;;;;;;4994741;28;20471;-89
2024/03/06 07:46:36;;;;;;;17.10;8.30;;;7.50;98.00;;;;;;4993712;28;20558;-90
2024/03/06 07:49:05;;;;;;;20.90;7.50;;;7.60;98.00;;;;;;4993939;28;20481;-89
2024/03/06 07:51:32;;;;;;;18.13;7.67;;;7.50;98.00;;;;;;4994114;28;20637;-90
2024/03/06 07:54:03;;;;;;;20.03;8.67;;;7.60;98.00;;;;;;4994481;28;20953;-89
2024/03/06 07:56:31;;;;;;;20.67;8.03;;;7.50;98.00;;;;;;4993275;28;20568;-90
2024/03/06 07:58:58;;;;;;;16.70;8.20;;;7.40;98.00;;;;;;4993186;28;20502;-90
2024/03/06 08:01:25;;;;;;;16.77;8.00;;;7.40;98.00;;;;;;4993573;28;20478;-90
2024/03/06 08:03:53;;;;;;;22.93;8.57;;;7.30;98.00;;;;;;4993875;28;20464;-90
2024/03/06 08:06:25;;;;;;;21.00;8.10;;;7.40;98.00;;;;;;4993417;28;20836;-90
2024/03/06 08:08:52;;;;;;;17.87;8.30;;;7.50;98.00;;;;;;4993969;28;20470;-90
2024/03/06 08:13:47;;;;;;;19.33;8.97;;;7.70;98.00;;;;;;4953368;28;20481;-63
2024/03/06 08:16:14;;;;;;;17.33;8.33;;;7.70;98.00;;;;;;4955129;28;20465;-63
2024/03/06 08:18:41;;;;;;;16.50;7.10;;;7.70;98.00;;;;;;4954582;28;20469;-62
2024/03/06 08:21:08;;;;;;;18.93;8.63;;;7.80;98.00;;;;;;4954395;28;20484;-63
2024/03/06 08:23:38;;;;;;;17.43;8.00;;;7.80;98.00;;;;;;4953426;28;20513;-63
2024/03/06 08:26:05;;;;;;;19.17;7.93;;;7.80;98.00;;;;;;4954199;29;20464;-62
2024/03/06 08:31:01;;;;;;;17.57;8.30;;;7.80;98.00;;;;;;4953304;28;20556;-63
2024/03/06 08:33:28;;;;;;;24.40;9.60;;;7.80;98.00;;;;;;4953001;28;20822;-62
2024/03/06 08:35:56;;;;;;;20.07;9.30;;;7.80;98.00;;;;;;4954100;28;20465;-61
2024/03/06 08:38:23;;;;;;;21.10;8.90;;;7.60;98.00;;;;;;4954529;28;20464;-61
2024/03/06 08:40:52;;;;;;;18.93;8.50;;;7.50;98.00;;;;;;4954455;28;20824;-60
2024/03/06 08:43:19;;;;;;;19.70;8.80;;;7.40;98.00;;;;;;4954733;28;20986;-60
2024/03/06 08:45:46;;;;;;;20.43;9.30;;;7.50;98.00;;;;;;4954638;28;20516;-60
2024/03/06 08:48:14;;;;;;;18.00;8.57;;;7.50;98.00;;;;;;4954724;28;20979;-60
2024/03/06 08:50:41;;;;;;;22.33;9.10;;;7.50;98.00;;;;;;4953128;28;20521;-61
2024/03/06 08:53:09;;;;;;;20.27;9.00;;;7.50;98.00;;;;;;4954931;28;20459;-61
2024/03/06 08:55:36;;;;;;;20.90;9.40;;;7.50;98.00;;;;;;4953983;28;20465;-60
2024/03/06 08:58:05;;;;;;;25.97;9.07;;;7.70;98.00;;;;;;4954410;28;20858;-60
2024/03/06 09:00:32;;;;;;;23.80;9.30;;;7.70;98.00;;;;;;4949614;28;20509;-61
2024/03/06 09:03:00;;;;;;;16.77;8.73;;;7.80;98.00;;;;;;4944027;28;20491;-59
2024/03/06 09:05:27;;;;;;;23.93;9.80;;;7.80;98.00;;;;;;4953778;28;20457;-63
2024/03/06 09:07:54;;;;;;;20.80;8.90;;;7.80;98.00;;;;;;4953962;28;20461;-63
2024/03/06 09:10:21;;;;;;;19.70;9.20;;;7.70;98.00;;;;;;4953480;28;20454;-61
2024/03/06 09:12:52;;;;;;;21.00;9.27;;;7.70;98.00;;;;;;4954287;28;20466;-62
2024/03/06 09:15:20;;;;;;;19.77;8.80;;;7.80;98.00;;;;;;4954553;28;20821;-63
2024/03/06 09:17:48;;;;;;;18.20;8.73;;;7.80;98.00;;;;;;4973604;28;20486;-60
2024/03/06 09:20:16;;;;;;;22.07;9.30;;;7.80;98.00;;;;;;4972662;28;20538;-61
2024/03/06 09:22:44;;;;;;;21.60;9.40;;;7.80;98.00;;;;;;4973671;28;20495;-64
2024/03/06 09:25:13;;;;;;;21.03;9.40;;;7.80;98.00;;;;;;4973592;28;20460;-64
2024/03/06 09:27:41;;;;;;;23.57;9.90;;;7.80;98.00;;;;;;4973457;28;20471;-64
2024/03/06 09:30:10;;;;;;;20.33;8.97;;;7.80;98.00;;;;;;4973510;28;20518;-64
2024/03/06 09:32:39;;;;;;;21.33;8.43;;;7.90;98.00;;;;;;4973535;28;20463;-64
2024/03/06 09:35:07;;;;;;;22.97;10.07;;;7.90;98.00;;;;;;4973562;28;20553;-65
2024/03/06 09:37:35;;;;;;;24.17;9.70;;;8.00;98.00;;;;;;4973410;28;20468;-64
2024/03/06 09:40:02;;;;;;;22.63;9.43;;;8.00;98.00;;;;;;4973168;28;20993;-62
2024/03/06 09:42:30;;;;;;;22.60;9.90;;;7.90;98.00;;;;;;4973309;28;20449;-61
2024/03/06 09:44:57;;;;;;;18.07;8.90;;;8.00;98.00;;;;;;4972875;28;20547;-62
2024/03/06 09:47:26;;;;;;;21.90;9.13;;;8.00;98.00;;;;;;4972844;28;20965;-62
2024/03/06 09:49:55;;;;;;;19.43;8.50;;;7.90;98.00;;;;;;4972727;28;20630;-62
2024/03/06 09:52:24;;;;;;;21.40;9.93;;;7.90;98.00;;;;;;4972757;28;20456;-62
2024/03/06 09:54:52;;;;;;;25.47;10.17;;;8.00;98.00;;;;;;4972571;28;20527;-62
2024/03/06 09:57:20;;;;;;;20.40;8.87;;;8.10;98.00;;;;;;4972632;28;20467;-63
2024/03/06 09:59:47;;;;;;;19.33;8.90;;;8.20;98.00;;;;;;4963873;28;20850;-63
2024/03/06 10:02:26;;;;;;;20.77;9.20;;;8.20;98.00;;;;;;4953025;29;20464;-62
2024/03/06 10:04:54;;;;;;;21.13;8.53;;;8.20;98.00;;;;;;4953083;29;20464;-65
2024/03/06 10:07:21;;;;;;;18.40;8.17;;;8.20;98.00;;;;;;4953004;28;20460;-65
2024/03/06 10:09:49;;;;;;;18.27;8.73;;;8.20;98.00;;;;;;4953371;29;20964;-62
2024/03/06 10:12:19;;;;;;;21.53;8.90;;;8.20;98.00;;;;;;4953145;29;20839;-62
2024/03/06 10:14:54;;;;;;;18.67;8.90;;;8.20;98.00;;;;;;4952936;29;20474;-62
2024/03/06 10:17:23;;;;;;;21.53;9.23;;;8.20;98.00;;;;;;4953112;28;20463;-63
2024/03/06 10:19:51;;;;;;;18.40;8.73;;;8.20;98.00;;;;;;4952746;29;20595;-63
2024/03/06 10:22:23;;;;;;;17.87;8.53;;;8.10;98.00;;;;;;4956193;28;20484;-63
2024/03/06 10:24:51;;;;;;;20.97;9.03;;;8.10;98.00;;;;;;4957424;29;20464;-63
2024/03/06 10:27:18;;;;;;;19.80;8.57;;;8.10;98.00;;;;;;4957527;28;20453;-65
2024/03/06 10:29:46;;;;;;;19.17;9.37;;;8.00;98.00;;;;;;4956934;28;21109;-65
2024/03/06 10:32:21;;;;;;;18.27;8.33;;;8.00;98.00;;;;;;4956226;29;20462;-62
2024/03/06 10:34:49;;;;;;;26.70;9.57;;;7.90;98.00;;;;;;4957554;28;20455;-62
2024/03/06 10:37:16;;;;;;;23.47;9.93;;;7.90;98.00;;;;;;4957696;29;20469;-62
2024/03/06 10:39:45;;;;;;;22.23;9.33;;;8.00;98.00;;;;;;4957170;28;21006;-62
2024/03/06 10:42:14;;;;;;;24.50;10.30;;;8.00;98.00;;;;;;4957391;29;20934;-63
2024/03/06 10:44:51;;;;;;;22.33;9.00;;;8.10;98.00;;;;;;4957395;29;20454;-63
2024/03/06 10:47:20;;;;;;;26.70;10.23;;;8.00;98.00;;;;;;4957261;29;20452;-63
2024/03/06 10:49:48;;;;;;;24.40;10.80;;;8.00;98.00;;;;;;4957256;28;20468;-63
2024/03/06 10:52:17;;;;;;;22.37;9.77;;;8.10;98.00;;;;;;5157742;23;20477;-62
2024/03/06 10:54:46;;;;;;;22.30;8.90;;;8.20;98.00;;;;;;4995387;28;20849;-63
2024/03/06 10:57:14;;;;;;;26.40;10.40;;;8.10;98.00;;;;;;4977966;28;20462;-62
2024/03/06 10:59:43;;;;;;;29.60;10.90;;;8.10;98.00;;;;;;4994769;28;20491;-62
2024/03/06 11:02:12;;;;;;;20.23;10.30;;;8.10;98.00;;;;;;4994990;28;20463;-63
2024/03/06 11:04:41;;;;;;;25.60;9.93;;;8.20;98.00;;;;;;4994888;28;20543;-63
2024/03/06 11:07:09;;;;;;;23.57;10.30;;;8.20;98.00;;;;;;4995143;28;20471;-62
2024/03/06 11:09:39;;;;;;;19.67;9.17;;;8.10;98.00;;;;;;4994673;28;20497;-62
2024/03/06 11:12:08;;;;;;;22.23;10.50;;;8.00;98.00;;;;;;4994444;28;20455;-63
2024/03/06 11:14:38;;;;;;;25.60;10.70;;;8.10;98.00;;;;;;4994622;28;20467;-63
2024/03/06 11:17:06;;;;;;;24.33;10.77;;;8.10;98.00;;;;;;4994775;28;20489;-63
2024/03/06 11:19:54;;;;;;;25.53;10.07;;;8.10;98.00;;;;;;4994439;28;20554;-62
2024/03/06 11:23:11;;;;;;;24.67;10.83;;;8.00;98.00;;;;;;4994588;28;20453;-63
2024/03/06 11:26:04;;;;;;;23.20;10.03;;;7.90;98.00;;;;;;4994553;28;20458;-63
2024/03/06 11:28:34;;;;;;;27.53;10.13;;;7.90;98.00;;;;;;4977929;28;20462;-62
2024/03/06 11:31:02;;;;;;;27.13;10.40;;;7.80;98.00;;;;;;4994312;28;20476;-63
2024/03/06 11:33:35;;;;;;;24.70;9.90;;;8.00;98.00;;;;;;4993137;28;20461;-63
2024/03/06 11:36:22;;;;;;;20.43;9.37;;;8.00;98.00;;;;;;4994681;28;20483;-63
2024/03/06 11:38:53;;;;;;;24.03;9.73;;;7.90;98.00;;;;;;4977719;28;20484;-63
2024/03/06 11:41:22;;;;;;;14.33;7.17;;;7.90;98.00;;;;;;4994340;28;20845;-67
2024/03/06 11:43:53;;;;;;;15.67;6.30;;;8.50;98.00;;;;;;4993939;28;20491;-70
2024/03/06 11:46:21;;;;;;;28.87;10.60;;;9.20;98.00;;;;;;4994308;28;20537;-67
2024/03/06 11:48:55;;;;;;;15.50;7.13;;;9.90;98.00;;;;;;4994200;28;20556;-62
2024/03/06 11:51:23;;;;;;;19.73;9.57;;;10.30;98.00;;;;;;4994049;28;20990;-62
2024/03/06 11:53:54;;;;;;;22.77;10.30;;;10.40;98.00;;;;;;4994028;28;20960;-62
2024/03/06 11:56:21;;;;;;;20.53;10.30;;;10.30;98.00;;;;;;4994261;28;20543;-63
2024/03/06 11:58:50;;;;;;;23.47;10.10;;;9.80;98.00;;;;;;4993951;28;20499;-62
2024/03/06 12:01:18;;;;;;;24.10;10.90;;;9.30;98.00;;;;;;4992914;28;20485;-62
2024/03/06 12:03:48;;;;;;;24.00;10.30;;;9.10;98.00;;;;;;4975770;28;20533;-63
2024/03/06 12:06:16;;;;;;;24.57;10.87;;;9.00;98.00;;;;;;4975535;28;20458;-62
2024/03/06 12:08:43;;;;;;;23.00;10.10;;;8.80;98.00;;;;;;4992762;28;21010;-62
2024/03/06 12:11:10;;;;;;;21.53;9.80;;;8.60;98.00;;;;;;4993018;28;20475;-62
2024/03/06 12:13:37;;;;;;;26.00;10.47;;;8.60;98.00;;;;;;4993574;28;20757;-62
2024/03/06 12:16:11;;;;;;;25.73;11.00;;;8.60;98.00;;;;;;4993612;28;20449;-62
2024/03/06 12:18:39;;;;;;;24.50;11.00;;;8.60;98.00;;;;;;4993642;28;20802;-62
2024/03/06 12:21:08;;;;;;;25.03;10.20;;;8.60;98.00;;;;;;4976235;28;20492;-62
2024/03/06 12:23:35;;;;;;;24.30;10.30;;;8.40;98.00;;;;;;4993454;28;20465;-62
2024/03/06 12:26:06;;;;;;;26.37;11.27;;;8.40;98.00;;;;;;4993258;28;20462;-62
2024/03/06 12:28:34;;;;;;;27.90;11.00;;;8.50;98.00;;;;;;4993418;28;20448;-62
2024/03/06 12:31:09;;;;;;;28.33;10.07;;;8.60;98.00;;;;;;4993110;28;20448;-63
2024/03/06 12:33:38;;;;;;;22.77;9.90;;;8.50;98.00;;;;;;4992712;28;20522;-62
2024/03/06 12:36:10;;;;;;;22.20;9.33;;;8.40;98.00;;;;;;4993265;28;21084;-63
2024/03/06 12:38:38;;;;;;;28.17;11.03;;;8.30;98.00;;;;;;4975966;28;20547;-62
2024/03/06 12:41:06;;;;;;;23.47;10.10;;;8.30;98.00;;;;;;4992881;28;20576;-63
2024/03/06 12:43:34;;;;;;;26.07;10.83;;;8.30;98.00;;;;;;4993091;28;20515;-63
2024/03/06 12:46:02;;;;;;;23.37;10.40;;;8.40;98.00;;;;;;4975886;28;20469;-63
2024/03/06 12:48:30;;;;;;;24.37;10.20;;;8.60;98.00;;;;;;4993086;28;20459;-63
2024/03/06 12:51:04;;;;;;;21.87;9.70;;;8.50;98.00;;;;;;4992772;28;20495;-63
2024/03/06 12:53:32;;;;;;;25.80;10.70;;;8.60;98.00;;;;;;4992823;28;20465;-63
2024/03/06 12:56:00;;;;;;;25.87;10.83;;;8.70;98.00;;;;;;4975627;28;20814;-63
2024/03/06 12:58:27;;;;;;;21.27;9.70;;;8.70;98.00;;;;;;4992830;28;20462;-63
2024/03/06 13:00:54;;;;;;;25.50;9.80;;;8.70;98.00;;;;;;4992492;28;20488;-63
2024/03/06 13:03:22;;;;;;;24.43;9.83;;;8.80;98.00;;;;;;4992693;28;20456;-62
2024/03/06 13:05:49;;;;;;;25.50;10.87;;;8.80;98.00;;;;;;4992749;28;20521;-63
2024/03/06 13:08:18;;;;;;;26.47;10.23;;;8.70;98.00;;;;;;4975432;28;20464;-63